createdAt,value
2019-05-30T00:00:38.840Z,100.00
2019-05-30T00:03:28.624Z,100.00
2019-05-30T00:06:18.383Z,100.00
2019-05-30T00:12:33.966Z,100.00
2019-05-30T00:15:16.285Z,100.00
2019-05-30T00:18:05.996Z,100.00
2019-05-30T00:20:48.753Z,100.00
2019-05-30T00:23:38.492Z,100.00
2019-05-30T00:26:21.075Z,100.00
2019-05-30T00:32:13.305Z,100.00
2019-05-30T00:35:03.829Z,100.00
2019-05-30T00:37:47.607Z,100.00
2019-05-30T00:40:30.206Z,100.00
2019-05-30T00:43:19.990Z,100.00
2019-05-30T00:46:09.782Z,100.00
2019-05-30T00:49:00.188Z,100.00
2019-05-30T00:51:43.867Z,100.00
2019-05-30T00:54:33.648Z,100.00
2019-05-30T00:57:23.430Z,100.00
2019-05-30T01:00:13.333Z,100.00
2019-05-30T01:08:26.338Z,100.00
2019-05-30T01:11:16.075Z,100.00
2019-05-30T01:14:07.346Z,100.00
2019-05-30T01:16:50.614Z,100.00
2019-05-30T01:19:40.448Z,100.00
2019-05-30T01:22:23.159Z,100.00
2019-05-30T01:25:33.392Z,100.00
2019-05-30T01:28:15.885Z,100.00
2019-05-30T01:31:10.999Z,100.00
2019-05-30T01:33:49.945Z,100.00
2019-05-30T01:36:39.763Z,100.00
2019-05-30T01:39:42.259Z,100.00
2019-05-30T01:42:24.660Z,100.00
2019-05-30T01:48:09.413Z,100.00
2019-05-30T01:51:11.269Z,100.00
2019-05-30T01:53:53.853Z,100.00
2019-05-30T01:56:43.907Z,100.00
2019-05-30T01:59:34.679Z,100.00
2019-05-30T02:02:24.557Z,100.00
2019-05-30T02:05:14.628Z,100.00
2019-05-30T02:07:56.791Z,100.00
2019-05-30T02:10:46.525Z,100.00
2019-05-30T02:13:36.331Z,100.00
2019-05-30T02:16:26.095Z,100.00
2019-05-30T02:19:15.872Z,100.00
2019-05-30T02:22:05.872Z,100.00
2019-05-30T02:24:53.563Z,100.00
2019-05-30T02:27:37.510Z,100.00
2019-05-30T02:30:27.550Z,100.00
2019-05-30T02:33:17.519Z,100.00
2019-05-30T02:36:08.438Z,100.00
2019-05-30T02:38:51.952Z,100.00
2019-05-30T02:41:41.746Z,100.00
2019-05-30T02:44:25.574Z,100.00
2019-05-30T02:47:15.323Z,100.00
2019-05-30T02:49:57.673Z,100.00
2019-05-30T02:52:44.077Z,100.00
2019-05-30T02:55:26.563Z,100.00
2019-05-30T02:58:16.687Z,100.00
2019-05-30T03:01:08.565Z,100.00
2019-05-30T03:03:52.297Z,100.00
2019-05-30T03:06:42.085Z,100.00
2019-05-30T03:09:24.650Z,100.00
2019-05-30T03:12:14.438Z,100.00
2019-05-30T03:17:41.199Z,100.00
2019-05-30T03:20:22.126Z,100.00
2019-05-30T03:23:05.777Z,100.00
2019-05-30T03:25:55.251Z,100.00
2019-05-30T03:28:37.577Z,100.00
2019-05-30T03:31:47.808Z,100.00
2019-05-30T03:34:29.786Z,100.00
2019-05-30T03:37:28.817Z,100.00
2019-05-30T03:40:03.794Z,100.00
2019-05-30T03:42:53.754Z,100.00
2019-05-30T03:45:35.790Z,100.00
2019-05-30T03:48:46.128Z,100.00
2019-05-30T03:51:36.027Z,100.00
2019-05-30T03:54:58.387Z,100.00
2019-05-30T03:57:42.586Z,100.00
2019-05-30T04:01:14.904Z,100.00
2019-05-30T04:04:19.139Z,100.00
2019-05-30T04:07:03.500Z,100.00
2019-05-30T04:13:09.914Z,100.00
2019-05-30T04:16:00.684Z,100.00
2019-05-30T04:18:50.541Z,100.00
2019-05-30T04:21:40.304Z,100.00
2019-05-30T04:24:22.703Z,100.00
2019-05-30T04:27:13.812Z,100.00
2019-05-30T04:29:57.100Z,100.00
2019-05-30T04:32:46.928Z,100.00
2019-05-30T04:38:40.925Z,100.00
2019-05-30T04:41:23.356Z,100.00
2019-05-30T04:44:14.487Z,100.00
2019-05-30T04:46:57.188Z,100.00
2019-05-30T04:49:47.078Z,100.00
2019-05-30T04:52:29.229Z,100.00
2019-05-30T04:55:22.370Z,100.00
2019-05-30T04:58:04.411Z,100.00
2019-05-30T05:00:56.207Z,100.00
2019-05-30T05:03:46.284Z,100.00
2019-05-30T05:06:33.695Z,100.00
2019-05-30T05:09:18.024Z,100.00
2019-05-30T05:12:08.068Z,100.00
2019-05-30T05:14:50.925Z,100.00
2019-05-30T05:17:40.685Z,100.00
2019-05-30T05:20:23.572Z,100.00
2019-05-30T05:23:13.341Z,100.00
2019-05-30T05:28:47.511Z,100.00
2019-05-30T05:31:22.657Z,100.00
2019-05-30T05:34:05.947Z,100.00
2019-05-30T05:36:55.641Z,100.00
2019-05-30T05:39:45.395Z,100.00
2019-05-30T05:42:16.126Z,100.00
2019-05-30T05:45:06.392Z,100.00
2019-05-30T05:47:56.134Z,100.00
2019-05-30T05:50:38.432Z,100.00
2019-05-30T05:53:29.064Z,100.00
2019-05-30T05:56:11.919Z,100.00
2019-05-30T05:58:42.635Z,100.00
2019-05-30T06:01:13.508Z,100.00
2019-05-30T06:03:44.192Z,100.00
2019-05-30T06:06:14.818Z,100.00
2019-05-30T06:08:45.492Z,100.00
2019-05-30T06:11:16.619Z,100.00
2019-05-30T06:13:47.359Z,100.00
2019-05-30T06:39:08.938Z,100.00
2019-05-30T06:41:40.914Z,100.00
2019-05-30T06:44:11.589Z,100.00
2019-05-30T06:46:42.430Z,100.00
2019-05-30T07:15:01.408Z,100.00
2019-05-30T07:17:51.202Z,100.00
2019-05-30T07:20:41.233Z,100.00
2019-05-30T07:23:32.007Z,100.00
2019-05-30T07:26:16.381Z,100.00
2019-05-30T07:29:00.615Z,100.00
2019-05-30T07:31:50.031Z,100.00
2019-05-30T07:34:34.282Z,100.00
2019-05-30T07:37:24.482Z,100.00
2019-05-30T07:40:10.993Z,100.00
2019-05-30T07:43:00.893Z,100.00
2019-05-30T07:45:48.661Z,100.00
2019-05-30T07:48:34.883Z,100.00
2019-05-30T07:51:36.467Z,100.00
2019-05-30T07:54:18.717Z,100.00
2019-05-30T07:57:08.467Z,100.00
2019-05-30T07:59:58.285Z,100.00
2019-05-30T08:02:48.067Z,100.00
2019-05-30T08:05:38.888Z,100.00
2019-05-30T08:08:21.643Z,100.00
2019-05-30T08:11:23.517Z,100.00
2019-05-30T08:14:06.082Z,100.00
2019-05-30T08:16:55.810Z,100.00
2019-05-30T08:19:40.937Z,100.00
2019-05-30T08:22:31.879Z,100.00
2019-05-30T08:25:15.121Z,100.00
2019-05-30T08:28:04.871Z,100.00
2019-05-30T08:30:46.807Z,100.00
2019-05-30T08:33:37.646Z,100.00
2019-05-30T08:36:20.263Z,100.00
2019-05-30T08:39:10.034Z,100.00
2019-05-30T08:41:52.588Z,100.00
2019-05-30T08:44:42.313Z,100.00
2019-05-30T08:47:24.617Z,100.00
2019-05-30T08:50:14.910Z,100.00
2019-05-30T08:52:57.805Z,100.00
2019-05-30T08:55:40.689Z,100.00
2019-05-30T08:58:30.554Z,100.00
2019-05-30T09:01:20.362Z,100.00
2019-05-30T09:04:29.220Z,100.00
2019-05-30T09:07:19.059Z,100.00
2019-05-30T09:13:22.706Z,100.00
2019-05-30T09:16:12.805Z,100.00
2019-05-30T09:19:02.626Z,100.00
2019-05-30T09:21:52.371Z,100.00
2019-05-30T09:24:42.447Z,100.00
2019-05-30T09:27:32.140Z,100.00
2019-05-30T09:30:14.724Z,100.00
2019-05-30T09:33:04.512Z,100.00
2019-05-30T09:35:54.426Z,100.00
2019-05-30T09:38:45.319Z,100.00
2019-05-30T09:41:30.933Z,100.00
2019-05-30T09:44:20.728Z,100.00
2019-05-30T09:47:10.469Z,100.00
2019-05-30T09:50:03.719Z,100.00
2019-05-30T09:52:45.223Z,100.00
2019-05-30T09:55:35.143Z,100.00
2019-05-30T09:58:25.175Z,100.00
2019-05-30T10:01:14.937Z,100.00
2019-05-30T10:04:04.656Z,100.00
2019-05-30T10:06:46.743Z,100.00
2019-05-30T10:09:36.544Z,100.00
2019-05-30T10:12:26.274Z,100.00
2019-05-30T10:15:16.049Z,100.00
2019-05-30T10:18:06.262Z,100.00
2019-05-30T10:20:57.116Z,100.00
2019-05-30T10:23:40.865Z,100.00
2019-05-30T10:26:30.721Z,100.00
2019-05-30T10:29:21.232Z,100.00
2019-05-30T10:32:11.014Z,100.00
2019-05-30T10:35:00.823Z,100.00
2019-05-30T10:37:50.989Z,100.00
2019-05-30T10:40:35.605Z,100.00
2019-05-30T10:43:25.315Z,100.00
2019-05-30T10:46:15.209Z,100.00
2019-05-30T10:49:34.369Z,100.00
2019-05-30T10:52:08.324Z,100.00
2019-05-30T10:54:58.113Z,92.89
2019-05-30T10:57:49.924Z,99.99
2019-05-30T11:00:55.817Z,100.00
2019-05-30T11:03:41.023Z,100.00
2019-05-30T11:07:11.640Z,90.77
2019-05-30T11:10:23.605Z,81.64
2019-05-30T11:16:03.639Z,94.47
2019-05-30T11:18:47.516Z,89.85
2019-05-30T11:21:37.901Z,97.54
2019-05-30T11:24:28.227Z,74.45
2019-05-30T11:27:18.815Z,80.32
2019-05-30T11:30:01.761Z,81.99
2019-05-30T11:32:53.102Z,89.25
2019-05-30T11:35:37.321Z,86.92
2019-05-30T11:38:46.755Z,82.80
2019-05-30T11:44:40.229Z,92.68
2019-05-30T11:47:22.333Z,86.38
2019-05-30T11:50:13.044Z,80.66
2019-05-30T11:52:57.962Z,84.56
2019-05-30T11:58:42.905Z,87.33
2019-05-30T12:01:32.724Z,81.37
2019-05-30T12:04:16.062Z,86.31
2019-05-30T12:07:06.366Z,60.03
2019-05-30T12:09:50.766Z,65.43
2019-05-30T12:12:41.037Z,64.13
2019-05-30T12:15:24.186Z,65.45
2019-05-30T12:18:14.760Z,62.54
2019-05-30T12:20:58.201Z,65.76
2019-05-30T12:24:07.602Z,50.89
2019-05-30T12:26:51.884Z,48.03
2019-05-30T12:29:42.352Z,52.49
2019-05-30T12:32:25.134Z,51.43
2019-05-30T12:35:15.653Z,53.61
2019-05-30T12:38:02.655Z,55.12
2019-05-30T12:40:50.921Z,52.02
2019-05-30T12:43:33.542Z,50.07
2019-05-30T12:46:23.974Z,44.29
2019-05-30T12:49:06.701Z,45.13
2019-05-30T12:51:58.295Z,49.40
2019-05-30T12:54:42.092Z,45.93
2019-05-30T12:57:44.251Z,39.00
2019-05-30T13:00:26.923Z,35.40
2019-05-30T13:03:17.348Z,34.96
2019-05-30T13:06:07.794Z,37.49
2019-05-30T13:08:59.057Z,35.71
2019-05-30T13:11:42.446Z,35.71
2019-05-30T13:14:32.724Z,35.00
2019-05-30T13:17:16.077Z,35.74
2019-05-30T13:23:23.386Z,36.71
2019-05-30T13:26:13.692Z,33.44
2019-05-30T13:32:08.289Z,33.80
2019-05-30T13:34:51.481Z,31.96
2019-05-30T13:37:41.986Z,30.21
2019-05-30T13:40:32.282Z,33.00
2019-05-30T13:43:14.860Z,33.36
2019-05-30T13:46:06.366Z,34.11
2019-05-30T13:48:49.756Z,35.90
2019-05-30T13:51:52.626Z,33.69
2019-05-30T13:54:35.876Z,34.50
2019-05-30T13:57:45.248Z,34.53
2019-05-30T14:00:28.345Z,31.73
2019-05-30T14:03:18.631Z,32.34
2019-05-30T14:06:03.009Z,32.83
2019-05-30T14:08:53.772Z,34.88
2019-05-30T14:11:36.591Z,34.13
2019-05-30T14:14:26.896Z,34.43
2019-05-30T14:17:12.319Z,34.08
2019-05-30T14:20:02.932Z,35.10
2019-05-30T14:22:46.581Z,34.80
2019-05-30T14:25:36.895Z,34.00
2019-05-30T14:28:20.197Z,34.39
2019-05-30T14:31:11.916Z,35.72
2019-05-30T14:33:55.309Z,35.94
2019-05-30T14:36:45.645Z,33.00
2019-05-30T14:39:28.893Z,31.10
2019-05-30T14:42:19.186Z,31.45
2019-05-30T14:45:30.059Z,32.39
2019-05-30T14:48:13.150Z,33.35
2019-05-30T14:51:15.519Z,32.77
2019-05-30T14:53:58.417Z,32.07
2019-05-30T14:59:50.942Z,31.81
2019-05-30T15:02:41.232Z,31.19
2019-05-30T15:05:24.535Z,32.85
2019-05-30T15:08:14.793Z,33.99
2019-05-30T15:10:57.440Z,32.54
2019-05-30T15:13:47.777Z,32.97
2019-05-30T15:16:31.143Z,32.09
2019-05-30T15:19:21.466Z,33.73
2019-05-30T15:22:05.469Z,34.45
2019-05-30T15:24:55.941Z,35.59
2019-05-30T15:27:39.478Z,35.76
2019-05-30T15:30:29.773Z,35.62
2019-05-30T15:33:12.882Z,36.40
2019-05-30T15:36:03.168Z,36.74
2019-05-30T15:38:53.451Z,37.96
2019-05-30T15:41:36.779Z,35.93
2019-05-30T15:44:40.074Z,34.24
2019-05-30T15:47:23.014Z,35.51
2019-05-30T15:50:14.177Z,35.54
2019-05-30T15:52:58.467Z,37.69
2019-05-30T15:55:48.748Z,34.79
2019-05-30T15:58:32.116Z,36.59
2019-05-30T16:01:22.413Z,38.96
2019-05-30T16:04:12.692Z,37.95
2019-05-30T16:06:56.087Z,39.91
2019-05-30T16:09:46.717Z,40.53
2019-05-30T16:12:30.531Z,40.32
2019-05-30T16:15:13.476Z,41.10
2019-05-30T16:18:03.779Z,42.55
2019-05-30T16:20:47.251Z,43.89
2019-05-30T16:23:37.651Z,45.54
2019-05-30T16:26:21.985Z,44.28
2019-05-30T16:29:13.596Z,44.94
2019-05-30T16:31:56.501Z,46.65
2019-05-30T16:34:46.211Z,43.15
2019-05-30T16:37:31.820Z,44.85
2019-05-30T16:40:22.454Z,48.05
2019-05-30T16:43:06.587Z,47.33
2019-05-30T16:45:49.170Z,45.09
2019-05-30T16:48:38.978Z,52.17
2019-05-30T16:51:48.374Z,58.18
2019-05-30T16:54:38.168Z,63.38
2019-05-30T16:57:27.986Z,64.06
2019-05-30T17:00:18.152Z,61.41
2019-05-30T17:02:48.798Z,56.29
2019-05-30T17:05:38.610Z,58.22
2019-05-30T17:08:20.792Z,59.83
2019-05-30T17:11:30.172Z,53.16
2019-05-30T17:14:21.734Z,49.68
2019-05-30T17:17:05.783Z,49.79
2019-05-30T17:19:55.577Z,53.05
2019-05-30T17:25:50.695Z,53.70
2019-05-30T17:28:34.035Z,57.60
2019-05-30T17:31:23.994Z,53.31
2019-05-30T17:34:08.307Z,60.87
2019-05-30T17:36:58.571Z,52.75
2019-05-30T17:39:43.314Z,54.99
2019-05-30T17:42:33.685Z,67.37
2019-05-30T17:45:16.391Z,59.99
2019-05-30T17:48:16.020Z,63.32
2019-05-30T17:50:51.629Z,67.24
2019-05-30T17:53:42.001Z,56.66
2019-05-30T17:56:26.116Z,58.74
2019-05-30T17:59:15.955Z,65.42
2019-05-30T18:02:00.971Z,79.87
2019-05-30T18:04:51.600Z,84.33
2019-05-30T18:07:35.031Z,72.58
2019-05-30T18:10:24.962Z,65.82
2019-05-30T18:19:06.004Z,68.33
2019-05-30T18:21:55.768Z,70.63
2019-05-30T18:24:41.945Z,68.99
2019-05-30T18:27:28.029Z,71.80
2019-05-30T18:30:19.331Z,68.93
2019-05-30T18:33:22.141Z,75.54
2019-05-30T18:36:04.057Z,89.78
2019-05-30T18:38:55.037Z,95.15
2019-05-30T18:41:41.199Z,95.86
2019-05-30T18:44:32.825Z,96.32
2019-05-30T18:47:14.907Z,95.87
2019-05-30T18:50:05.248Z,96.50
2019-05-30T18:52:48.535Z,99.05
2019-05-30T18:55:38.947Z,96.68
2019-05-30T18:58:24.744Z,100.00
2019-05-30T19:01:34.000Z,99.88
2019-05-30T19:04:17.140Z,100.00
2019-05-30T19:10:12.528Z,100.00
2019-05-30T19:12:55.922Z,100.00
2019-05-30T19:15:46.406Z,100.00
2019-05-30T19:18:36.220Z,100.00
2019-05-30T19:21:27.889Z,100.00
2019-05-30T19:24:18.714Z,100.00
2019-05-30T19:33:28.966Z,100.00
2019-05-30T19:36:18.681Z,100.00
2019-05-30T19:39:02.846Z,100.00
2019-05-30T19:42:12.234Z,100.00
2019-05-30T19:44:55.421Z,100.00
2019-05-30T19:47:45.173Z,100.00
2019-05-30T19:50:28.420Z,100.00
2019-05-30T19:53:18.197Z,100.00
2019-05-30T19:56:08.077Z,100.00
2019-05-30T19:58:51.529Z,100.00
2019-05-30T20:01:41.346Z,100.00
2019-05-30T20:04:32.191Z,100.00
2019-05-30T20:07:15.619Z,100.00
2019-05-30T20:10:26.019Z,100.00
2019-05-30T20:13:28.427Z,100.00
2019-05-30T20:16:12.556Z,100.00
2019-05-30T20:19:02.230Z,100.00
2019-05-30T20:21:45.128Z,100.00
2019-05-30T20:24:34.846Z,100.00
2019-05-30T20:27:24.184Z,100.00
2019-05-30T20:30:14.205Z,100.00
2019-05-30T20:32:56.843Z,100.00
2019-05-30T20:35:46.958Z,100.00
2019-05-30T20:38:30.211Z,100.00
2019-05-30T20:41:12.083Z,100.00
2019-05-30T20:44:01.827Z,100.00
2019-05-30T20:46:51.732Z,100.00
2019-05-30T20:49:41.446Z,100.00
2019-05-30T20:52:25.786Z,100.00
2019-05-30T20:55:15.569Z,100.00
2019-05-30T20:57:57.547Z,100.00
2019-05-30T21:00:47.273Z,100.00
2019-05-30T21:03:29.227Z,100.00
2019-05-30T21:06:19.311Z,100.00
2019-05-30T21:09:01.547Z,100.00
2019-05-30T21:15:07.083Z,100.00
2019-05-30T21:18:17.434Z,100.00
2019-05-30T21:21:26.302Z,100.00
2019-05-30T21:24:16.225Z,100.00
2019-05-30T21:27:05.987Z,100.00
2019-05-30T21:29:55.765Z,100.00
2019-05-30T21:35:49.555Z,100.00
2019-05-30T21:38:32.365Z,100.00
2019-05-30T21:41:02.991Z,100.00
2019-05-30T21:43:52.729Z,100.00
2019-05-30T21:46:38.900Z,100.00
2019-05-30T21:49:21.142Z,100.00
2019-05-30T21:52:11.045Z,100.00
2019-05-30T21:55:03.246Z,100.00
2019-05-30T21:57:46.032Z,100.00
2019-05-30T22:03:20.689Z,100.00
2019-05-30T22:06:10.475Z,100.00
2019-05-30T22:08:53.142Z,100.00
2019-05-30T22:11:43.645Z,100.00
2019-05-30T22:14:27.255Z,100.00
2019-05-30T22:20:06.740Z,100.00
2019-05-30T22:22:52.200Z,100.00
2019-05-30T22:25:36.771Z,100.00
2019-05-30T22:37:12.540Z,100.00
2019-05-30T22:42:58.366Z,100.00
2019-05-30T22:45:41.017Z,100.00
2019-05-30T22:48:30.767Z,100.00
2019-05-30T22:51:20.623Z,100.00
2019-05-30T22:54:10.658Z,100.00
2019-05-30T22:57:01.404Z,100.00
2019-05-30T22:59:44.692Z,100.00
2019-05-30T23:02:34.416Z,100.00
2019-05-30T23:05:16.446Z,100.00
2019-05-30T23:08:06.494Z,100.00
2019-05-30T23:10:49.650Z,100.00
2019-05-30T23:13:40.750Z,100.00
2019-05-30T23:16:23.186Z,100.00
2019-05-30T23:19:12.916Z,100.00
2019-05-30T23:21:55.517Z,100.00
2019-05-30T23:24:45.232Z,100.00
2019-05-30T23:27:27.843Z,100.00
2019-05-30T23:30:17.742Z,100.00
2019-05-30T23:33:00.374Z,100.00
2019-05-30T23:35:50.336Z,100.00
2019-05-30T23:38:32.700Z,100.00
2019-05-30T23:41:22.402Z,100.00
2019-05-30T23:44:11.203Z,100.00
2019-05-30T23:46:56.192Z,100.00
2019-05-30T23:49:38.805Z,100.00
2019-05-30T23:52:28.529Z,100.00
2019-05-30T23:55:12.849Z,100.00
2019-05-30T23:58:02.545Z,100.00
